Terminal Aerodrome Forecast
Issued by NWS Sterling, VA

Home | Current Version | Previous Version | Text Only | Print | Product List | Glossary On
Versions: 1 2 3 4 5 6 7 8 9 10 11 12 13 14 15 16 17 18 19 20 21 22 23 24 25 26 27 28
616
FTUS41 KLWX 310535
TAFIAD
TAF
KIAD 310535Z 3106/0112 VRB03KT P6SM BKN005 OVC015
     FM310800 00000KT 4SM BR OVC005
     FM311200 00000KT P6SM BKN015
     FM311400 VRB03KT P6SM BKN040
     FM010800 VRB03KT P6SM SCT070
     FM011100 31004KT P6SM BKN060=

USA.gov is the U.S. government's official web portal to all federal, state and local government web resources and services.